Time;durP1;ratioP1;P1;durP2;ratioP2;P2;SDS_P1;SDS_P2;PMS_P1;PMS_P2;Temp;Humidity;BMP_temperature;BMP_pressure;BME280_temperature;BME280_humidity;BME280_pressure;Samples;Min_cycle;Max_cycle;Signal;HPM_P1;HPM_P2
2024/04/25 00:00:53;;;;;;;16.27;10.30;;;6.50;99.90;;;;;;5509110;26;20012;-64
2024/04/25 00:03:19;;;;;;;16.75;10.15;;;6.50;99.90;;;;;;5498435;25;20006;-64
2024/04/25 00:05:44;;;;;;;16.55;10.75;;;6.50;99.90;;;;;;5467494;26;20046;-63
2024/04/25 00:08:10;;;;;;;18.15;10.65;;;6.50;99.90;;;;;;5503670;25;19994;-64
2024/04/25 00:10:36;;;;;;;22.05;11.32;;;6.60;99.90;;;;;;5503880;25;20346;-64
2024/04/25 00:13:02;;;;;;;18.40;11.23;;;6.60;99.90;;;;;;5507595;25;19997;-64
2024/04/25 00:15:28;;;;;;;18.27;11.45;;;6.50;99.90;;;;;;5512015;25;20008;-63
2024/04/25 00:17:54;;;;;;;18.80;11.35;;;6.60;99.90;;;;;;5504735;25;19994;-65
2024/04/25 00:20:19;;;;;;;21.52;12.45;;;6.60;99.90;;;;;;5509031;25;20367;-63
2024/04/25 00:22:45;;;;;;;19.77;12.05;;;6.50;99.90;;;;;;5503928;25;20033;-66
2024/04/25 00:25:11;;;;;;;20.13;11.10;;;6.50;99.90;;;;;;5500581;25;19998;-64
2024/04/25 00:27:36;;;;;;;18.10;11.07;;;6.60;99.90;;;;;;5511873;25;20011;-64
2024/04/25 00:30:03;;;;;;;24.55;12.32;;;6.60;99.90;;;;;;5506708;25;20009;-64
2024/04/25 00:32:29;;;;;;;18.02;10.45;;;6.50;99.90;;;;;;5499620;25;20006;-63
2024/04/25 00:34:57;;;;;;;18.50;10.70;;;6.50;99.90;;;;;;5507601;25;20005;-64
2024/04/25 00:37:23;;;;;;;16.75;11.48;;;6.50;99.90;;;;;;5515274;26;20001;-63
2024/04/25 00:39:50;;;;;;;18.23;11.13;;;6.40;99.90;;;;;;5516718;26;20561;-63
2024/04/25 00:42:20;;;;;;;18.10;10.48;;;6.40;99.90;;;;;;5514141;26;20719;-64
2024/04/25 00:44:45;;;;;;;15.70;10.15;;;6.40;99.90;;;;;;5511836;26;19998;-65
2024/04/25 00:47:14;;;;;;;16.58;9.95;;;6.40;99.90;;;;;;5501878;26;20035;-63
2024/04/25 00:49:39;;;;;;;16.02;9.45;;;6.40;99.90;;;;;;5507083;25;20012;-64
2024/04/25 00:52:07;;;;;;;17.40;11.30;;;6.40;99.90;;;;;;5502553;26;20037;-63
2024/04/25 00:54:33;;;;;;;23.95;11.88;;;6.40;99.90;;;;;;5516383;26;20073;-64
2024/04/25 00:57:02;;;;;;;19.88;11.23;;;6.40;99.90;;;;;;5513337;26;20472;-64
2024/04/25 00:59:30;;;;;;;20.60;10.77;;;6.40;99.90;;;;;;5516566;26;20017;-64
2024/04/25 01:02:00;;;;;;;19.02;11.27;;;6.40;99.90;;;;;;5518195;26;20001;-64
2024/04/25 01:04:28;;;;;;;18.23;10.95;;;6.40;99.90;;;;;;5510610;26;20058;-63
2024/04/25 01:06:56;;;;;;;;;;;6.40;99.90;;;;;;5516368;26;20034;-64
2024/04/25 01:09:21;;;;;;;21.23;11.50;;;6.50;99.90;;;;;;5516470;26;20304;-65
2024/04/25 01:11:47;;;;;;;19.88;11.80;;;6.40;99.90;;;;;;5517138;26;20465;-63
2024/04/25 01:14:12;;;;;;;22.27;12.98;;;6.50;99.90;;;;;;5517202;26;20001;-63
2024/04/25 01:16:38;;;;;;;24.20;13.15;;;6.40;99.90;;;;;;5501620;26;19997;-64
2024/04/25 01:19:03;;;;;;;20.38;12.52;;;6.40;99.90;;;;;;5516735;26;20017;-63
2024/04/25 01:21:29;;;;;;;26.75;14.18;;;6.40;99.90;;;;;;5480381;26;19993;-64
2024/04/25 01:24:01;;;;;;;22.73;12.48;;;6.30;99.90;;;;;;5515749;26;20012;-64
2024/04/25 01:26:27;;;;;;;24.10;13.52;;;6.30;99.90;;;;;;5476251;26;20446;-64
2024/04/25 01:28:55;;;;;;;21.58;13.45;;;6.40;99.90;;;;;;5517119;26;20564;-63
2024/04/25 01:31:20;;;;;;;21.40;12.73;;;6.30;99.90;;;;;;5515502;26;20818;-63
2024/04/25 01:33:47;;;;;;;20.33;12.32;;;6.40;99.90;;;;;;5510229;26;20058;-64
2024/04/25 01:36:12;;;;;;;21.90;13.75;;;6.40;99.90;;;;;;5481383;26;19997;-63
2024/04/25 01:38:38;;;;;;;22.27;13.25;;;6.40;99.90;;;;;;5511757;25;20074;-63
2024/04/25 01:41:03;;;;;;;22.38;13.27;;;6.40;99.90;;;;;;5514657;25;20001;-64
2024/04/25 01:43:29;;;;;;;22.40;13.57;;;6.40;99.90;;;;;;5513304;26;20073;-64
2024/04/25 01:45:55;;;;;;;23.98;13.20;;;6.30;99.90;;;;;;5510311;26;20012;-64
2024/04/25 01:48:20;;;;;;;23.85;13.52;;;6.40;99.90;;;;;;5515453;26;20065;-63
2024/04/25 01:50:46;;;;;;;22.02;13.10;;;6.40;99.90;;;;;;5505148;25;19994;-65
2024/04/25 01:53:12;;;;;;;21.65;12.80;;;6.30;99.90;;;;;;5478616;26;20710;-63
2024/04/25 01:55:38;;;;;;;25.48;14.10;;;6.40;99.90;;;;;;5514483;26;20123;-64
2024/04/25 01:58:04;;;;;;;24.10;12.73;;;6.30;99.90;;;;;;5506127;25;19993;-63
2024/04/25 02:00:30;;;;;;;23.70;13.77;;;6.30;99.90;;;;;;5509048;25;20017;-64
2024/04/25 02:02:55;;;;;;;27.80;14.38;;;6.20;99.90;;;;;;5468523;26;20013;-64
2024/04/25 02:05:21;;;;;;;22.17;12.98;;;6.20;99.90;;;;;;5514880;25;20003;-65
2024/04/25 02:07:46;;;;;;;26.98;13.43;;;6.30;99.90;;;;;;5483320;25;20038;-64
2024/04/25 02:10:12;;;;;;;22.70;13.15;;;6.30;99.90;;;;;;5471494;26;20462;-65
2024/04/25 02:12:38;;;;;;;22.23;13.25;;;6.30;99.90;;;;;;5512268;26;20012;-65
2024/04/25 02:15:04;;;;;;;22.75;12.82;;;6.30;99.90;;;;;;5508574;25;19997;-63
2024/04/25 02:17:29;;;;;;;24.05;13.48;;;6.20;99.90;;;;;;5507244;25;19997;-66
2024/04/25 02:19:55;;;;;;;24.55;12.45;;;6.20;99.90;;;;;;5482156;26;20005;-64
2024/04/25 02:27:31;;;;;;;23.35;12.23;;;6.30;99.90;;;;;;5504138;26;20014;-63
2024/04/25 02:29:57;;;;;;;24.13;12.65;;;6.30;99.90;;;;;;5511782;25;19993;-63
2024/04/25 02:32:23;;;;;;;24.23;12.50;;;6.20;99.90;;;;;;5474598;25;19998;-64
2024/04/25 02:34:49;;;;;;;21.63;12.40;;;6.10;99.90;;;;;;5507071;25;20787;-64
2024/04/25 02:37:14;;;;;;;22.10;12.43;;;6.10;99.90;;;;;;5480211;26;20013;-64
2024/04/25 02:39:40;;;;;;;23.00;12.40;;;6.10;99.90;;;;;;5513481;25;20086;-64
2024/04/25 02:42:06;;;;;;;22.42;13.13;;;6.10;99.90;;;;;;5511254;25;20081;-64
2024/04/25 02:44:31;;;;;;;23.10;12.75;;;6.20;99.90;;;;;;5514486;26;20766;-63
2024/04/25 02:46:57;;;;;;;24.95;14.50;;;6.10;99.90;;;;;;5505260;25;20725;-63
2024/04/25 02:49:23;;;;;;;22.90;12.25;;;6.10;99.90;;;;;;5510904;25;20012;-65
2024/04/25 02:51:49;;;;;;;23.17;13.02;;;6.10;99.90;;;;;;5480510;26;20013;-63
2024/04/25 02:54:14;;;;;;;27.85;12.27;;;6.10;99.90;;;;;;5504673;25;20014;-64
2024/04/25 02:56:40;;;;;;;21.20;11.88;;;6.10;99.90;;;;;;5502182;26;20013;-64
2024/04/25 02:59:05;;;;;;;21.80;11.95;;;6.10;99.90;;;;;;5511427;26;20473;-65
2024/04/25 03:01:31;;;;;;;24.80;11.60;;;6.10;99.90;;;;;;5501984;25;20001;-64
2024/04/25 03:03:57;;;;;;;24.45;11.90;;;6.10;99.90;;;;;;5504196;26;20001;-63
2024/04/25 03:06:24;;;;;;;21.52;10.98;;;6.00;99.90;;;;;;5481210;26;20501;-64
2024/04/25 03:08:50;;;;;;;21.23;11.23;;;6.00;99.90;;;;;;5482200;26;20331;-64
2024/04/25 03:11:16;;;;;;;19.20;10.25;;;5.90;99.90;;;;;;5503037;26;20034;-64
2024/04/25 03:13:41;;;;;;;21.75;10.20;;;5.90;99.90;;;;;;5513992;25;20011;-65
2024/04/25 03:16:07;;;;;;;21.67;11.02;;;5.90;99.90;;;;;;5509391;25;20450;-63
2024/04/25 03:18:33;;;;;;;25.17;10.65;;;6.00;99.90;;;;;;5508624;25;20523;-63
2024/04/25 03:21:06;;;;;;;19.73;9.68;;;5.90;99.90;;;;;;5509309;25;19998;-63
2024/04/25 03:23:34;;;;;;;20.23;10.52;;;5.90;99.90;;;;;;5506485;25;20077;-64
2024/04/25 03:26:03;;;;;;;22.33;10.27;;;5.90;99.90;;;;;;5501123;25;20045;-63
2024/04/25 03:28:30;;;;;;;21.77;10.18;;;5.90;99.90;;;;;;5498949;25;20476;-64
2024/04/25 03:30:55;;;;;;;22.17;10.40;;;5.90;99.90;;;;;;5501341;25;19997;-63
2024/04/25 03:33:21;;;;;;;20.02;9.82;;;5.90;99.90;;;;;;5513970;25;20009;-64
2024/04/25 03:35:47;;;;;;;20.48;8.70;;;5.80;99.90;;;;;;5464843;25;19998;-64
2024/04/25 03:38:12;;;;;;;21.77;9.38;;;5.80;99.90;;;;;;5501369;26;19993;-63
2024/04/25 03:40:38;;;;;;;16.75;9.55;;;5.80;99.90;;;;;;5507802;26;20013;-63
2024/04/25 03:43:05;;;;;;;15.38;8.13;;;5.80;99.90;;;;;;5512244;26;19998;-64
2024/04/25 03:45:30;;;;;;;18.70;9.45;;;5.80;99.90;;;;;;5510204;25;20003;-63
2024/04/25 03:47:56;;;;;;;21.73;9.95;;;5.80;99.90;;;;;;5505111;25;19994;-63
2024/04/25 03:50:22;;;;;;;21.05;9.70;;;5.70;99.90;;;;;;5506942;25;19998;-64
2024/04/25 03:52:48;;;;;;;21.70;9.63;;;5.70;99.90;;;;;;5508996;25;19997;-65
2024/04/25 03:55:13;;;;;;;22.42;9.90;;;5.70;99.90;;;;;;5475778;25;20042;-63
2024/04/25 03:57:39;;;;;;;17.35;8.57;;;5.70;99.90;;;;;;5512297;25;20545;-64
2024/04/25 04:00:05;;;;;;;22.10;9.45;;;5.70;99.90;;;;;;5517816;25;20390;-63
2024/04/25 04:02:31;;;;;;;17.75;9.45;;;5.70;99.90;;;;;;5509532;25;20080;-65
2024/04/25 04:04:56;;;;;;;18.50;8.82;;;5.70;99.90;;;;;;5513856;25;20002;-67
2024/04/25 04:07:22;;;;;;;13.68;8.38;;;5.70;99.90;;;;;;5499514;25;20066;-67
2024/04/25 04:09:48;;;;;;;18.58;8.70;;;5.70;99.90;;;;;;5515534;26;20024;-66
2024/04/25 04:12:14;;;;;;;18.08;7.88;;;5.70;99.90;;;;;;5518079;26;20074;-68
2024/04/25 04:14:41;;;;;;;18.88;7.95;;;5.60;99.90;;;;;;5516850;25;20009;-66
2024/04/25 04:17:06;;;;;;;19.33;8.23;;;5.60;99.90;;;;;;5482571;26;20020;-65
2024/04/25 04:19:32;;;;;;;15.15;7.78;;;5.70;99.90;;;;;;5510894;25;19997;-66
2024/04/25 04:21:58;;;;;;;13.07;7.18;;;5.70;99.90;;;;;;5505262;25;19997;-68
2024/04/25 04:24:23;;;;;;;15.98;7.72;;;5.70;99.90;;;;;;5518031;26;20345;-66
2024/04/25 04:26:49;;;;;;;16.58;7.28;;;5.70;99.90;;;;;;5512587;25;20469;-65
2024/04/25 04:29:15;;;;;;;13.73;7.70;;;5.70;99.90;;;;;;5505810;25;20024;-65
2024/04/25 04:31:40;;;;;;;15.07;7.65;;;5.60;99.90;;;;;;5500646;25;19998;-65
2024/04/25 04:34:07;;;;;;;18.60;7.53;;;5.60;99.90;;;;;;5503523;25;20019;-65
2024/04/25 04:36:34;;;;;;;13.38;7.25;;;5.60;99.90;;;;;;5512590;25;20013;-66
2024/04/25 04:39:10;;;;;;;20.33;6.93;;;5.60;99.90;;;;;;5507779;26;20004;-66
2024/04/25 04:41:35;;;;;;;14.38;7.13;;;5.60;99.90;;;;;;5513653;25;20446;-67
2024/04/25 04:44:01;;;;;;;17.25;7.18;;;5.60;99.90;;;;;;5514621;26;20005;-66
2024/04/25 04:46:27;;;;;;;15.43;7.38;;;5.60;99.90;;;;;;5481112;25;20035;-67
2024/04/25 04:48:52;;;;;;;13.85;7.28;;;5.60;99.90;;;;;;5507772;25;20062;-66
2024/04/25 04:51:21;;;;;;;17.35;7.40;;;5.60;99.90;;;;;;5500928;25;20474;-68
2024/04/25 04:53:47;;;;;;;14.70;7.18;;;5.60;99.90;;;;;;5511747;25;20458;-66
2024/04/25 04:56:13;;;;;;;18.10;7.75;;;5.60;99.90;;;;;;5508064;25;20461;-68
2024/04/25 04:58:39;;;;;;;17.67;7.75;;;5.60;99.90;;;;;;5507692;25;20012;-66
2024/04/25 05:01:04;;;;;;;13.02;7.13;;;5.60;99.90;;;;;;5512703;25;20332;-67
2024/04/25 05:03:30;;;;;;;18.55;6.97;;;5.70;99.90;;;;;;5505148;25;20001;-66
2024/04/25 05:05:56;;;;;;;14.35;7.15;;;5.70;99.90;;;;;;5516288;25;20042;-67
2024/04/25 05:08:22;;;;;;;17.55;7.55;;;5.70;99.90;;;;;;5506129;25;20605;-66
2024/04/25 05:10:48;;;;;;;17.45;8.38;;;5.70;99.90;;;;;;5512784;25;20442;-66
2024/04/25 05:13:13;;;;;;;17.25;8.82;;;5.80;99.90;;;;;;5509349;25;19997;-66
2024/04/25 05:15:39;;;;;;;14.98;8.35;;;5.80;99.90;;;;;;5514740;26;19997;-67
2024/04/25 05:18:06;;;;;;;24.95;8.95;;;5.90;99.90;;;;;;5513680;26;20103;-67
2024/04/25 05:20:32;;;;;;;14.55;7.65;;;5.90;99.90;;;;;;5477539;26;20002;-66
2024/04/25 05:22:58;;;;;;;18.48;8.30;;;5.90;99.90;;;;;;5511340;26;19994;-67
2024/04/25 05:25:25;;;;;;;13.38;8.13;;;5.90;99.90;;;;;;5508147;26;20054;-66
2024/04/25 05:27:52;;;;;;;18.60;9.32;;;5.90;99.90;;;;;;5505884;25;20020;-65
2024/04/25 05:30:20;;;;;;;15.90;9.63;;;5.90;99.90;;;;;;5501450;25;20008;-66
2024/04/25 05:32:46;;;;;;;19.25;9.77;;;5.90;99.90;;;;;;5507417;25;19997;-66
2024/04/25 05:35:11;;;;;;;15.23;8.52;;;5.90;99.90;;;;;;5513403;25;20621;-66
2024/04/25 05:37:37;;;;;;;18.13;8.63;;;5.90;99.90;;;;;;5505367;25;20009;-66
2024/04/25 05:40:03;;;;;;;13.77;7.93;;;6.00;99.90;;;;;;5511797;25;20002;-66
2024/04/25 05:42:28;;;;;;;17.08;8.68;;;6.10;99.90;;;;;;5506582;25;19993;-68
2024/04/25 05:44:54;;;;;;;16.20;7.45;;;6.10;99.90;;;;;;5507430;25;20005;-66
2024/04/25 05:47:20;;;;;;;19.15;8.15;;;6.10;99.90;;;;;;5509639;25;19994;-67
2024/04/25 05:49:46;;;;;;;18.05;7.43;;;6.10;99.90;;;;;;5512083;25;19994;-65
2024/04/25 05:52:16;;;;;;;12.73;7.45;;;6.10;99.90;;;;;;5499686;26;20354;-66
2024/04/25 05:54:41;;;;;;;15.25;8.07;;;6.20;99.90;;;;;;5508455;25;20144;-70
2024/04/25 05:57:08;;;;;;;17.55;7.85;;;6.20;99.90;;;;;;5501575;25;20001;-66
2024/04/25 05:59:34;;;;;;;18.70;7.65;;;6.20;99.90;;;;;;5510229;25;20026;-66
2024/04/25 06:02:00;;;;;;;14.43;7.35;;;6.20;99.90;;;;;;5502166;25;20439;-66
2024/04/25 06:04:26;;;;;;;15.57;7.32;;;6.30;99.90;;;;;;5488593;25;20078;-65
2024/04/25 06:06:52;;;;;;;17.67;8.05;;;6.30;99.90;;;;;;5504583;25;19997;-66
2024/04/25 06:09:18;;;;;;;15.77;8.20;;;6.30;99.90;;;;;;5501349;25;19993;-66
2024/04/25 06:11:43;;;;;;;13.38;6.95;;;6.30;99.90;;;;;;5515500;26;20008;-67
2024/04/25 06:14:09;;;;;;;17.05;8.70;;;6.30;99.90;;;;;;5513922;26;20458;-65
2024/04/25 06:16:34;;;;;;;17.35;9.18;;;6.30;99.90;;;;;;5482295;26;20259;-67
2024/04/25 06:19:01;;;;;;;24.25;9.07;;;6.20;99.90;;;;;;5510442;25;20005;-68
2024/04/25 06:21:28;;;;;;;25.30;9.60;;;6.30;99.90;;;;;;5503845;25;19998;-67
2024/04/25 06:23:54;;;;;;;13.82;8.43;;;6.40;99.90;;;;;;5506931;25;20040;-67
2024/04/25 06:26:20;;;;;;;15.15;6.82;;;6.40;99.90;;;;;;5508414;25;20667;-67
2024/04/25 06:28:46;;;;;;;17.98;8.55;;;6.40;99.90;;;;;;5502176;25;20030;-66
2024/04/25 06:31:12;;;;;;;14.35;7.50;;;6.40;99.90;;;;;;5500781;25;20349;-67
2024/04/25 06:33:41;;;;;;;13.70;7.65;;;6.50;99.90;;;;;;5499409;26;19993;-67
2024/04/25 06:36:08;;;;;;;16.00;7.57;;;6.50;99.90;;;;;;5503457;25;20133;-66
2024/04/25 06:38:34;;;;;;;12.35;7.40;;;6.50;99.90;;;;;;5506675;25;20037;-67
2024/04/25 06:40:59;;;;;;;20.75;7.15;;;6.60;99.90;;;;;;5506168;25;19997;-68
2024/04/25 06:43:25;;;;;;;16.98;7.30;;;6.60;99.90;;;;;;5503938;25;20065;-66
2024/04/25 06:45:51;;;;;;;13.80;7.93;;;6.60;99.90;;;;;;5508653;25;20451;-68
2024/04/25 06:48:16;;;;;;;16.83;7.43;;;6.60;99.90;;;;;;5502955;25;20001;-66
2024/04/25 06:50:42;;;;;;;13.23;7.72;;;6.60;99.90;;;;;;5474927;26;20533;-67
2024/04/25 06:53:08;;;;;;;18.05;8.25;;;6.60;99.90;;;;;;5507432;25;20012;-67
2024/04/25 06:55:34;;;;;;;15.05;7.57;;;6.60;99.90;;;;;;5502162;25;20005;-66
2024/04/25 06:58:00;;;;;;;14.82;8.75;;;6.60;99.90;;;;;;5473350;26;20002;-65
2024/04/25 07:00:25;;;;;;;20.05;7.32;;;6.60;99.90;;;;;;5511172;26;20513;-67
2024/04/25 07:02:51;;;;;;;13.45;6.70;;;6.70;99.90;;;;;;5474089;26;20008;-66
2024/04/25 07:05:17;;;;;;;18.88;8.10;;;6.80;99.90;;;;;;5505475;25;20091;-67
2024/04/25 07:07:43;;;;;;;13.98;7.88;;;6.90;99.90;;;;;;5476566;25;20454;-67
2024/04/25 07:10:09;;;;;;;17.58;8.10;;;7.00;99.90;;;;;;5480453;26;19993;-66
2024/04/25 07:12:35;;;;;;;15.48;8.63;;;7.00;99.90;;;;;;5508108;25;20484;-68
2024/04/25 07:15:05;;;;;;;17.90;8.63;;;7.00;99.90;;;;;;5504564;25;19998;-67
2024/04/25 07:17:31;;;;;;;13.90;8.18;;;7.00;99.90;;;;;;5501092;25;20016;-68
2024/04/25 07:19:56;;;;;;;17.08;8.90;;;7.00;99.90;;;;;;5510685;25;20001;-66
2024/04/25 07:22:22;;;;;;;15.73;8.77;;;7.10;99.90;;;;;;5474958;26;20002;-67
2024/04/25 07:24:47;;;;;;;13.05;8.63;;;7.20;99.90;;;;;;5506298;25;20001;-67
2024/04/25 07:27:13;;;;;;;17.75;9.48;;;7.20;99.90;;;;;;5505487;25;19998;-67
2024/04/25 07:29:44;;;;;;;16.52;9.25;;;7.20;99.90;;;;;;5508503;25;20068;-65
2024/04/25 07:32:10;;;;;;;17.38;10.35;;;7.30;99.90;;;;;;5504718;25;20041;-66
2024/04/25 07:34:36;;;;;;;21.08;10.35;;;7.30;99.90;;;;;;5492513;26;19998;-66
2024/04/25 07:37:02;;;;;;;15.45;9.52;;;7.30;99.90;;;;;;5502225;25;19997;-67
2024/04/25 07:39:28;;;;;;;19.08;9.35;;;7.20;99.90;;;;;;5479983;26;19998;-67
2024/04/25 07:41:53;;;;;;;20.70;9.85;;;7.30;99.90;;;;;;5475967;26;20454;-66
2024/04/25 07:44:19;;;;;;;15.50;9.60;;;7.20;99.90;;;;;;5476597;26;20012;-67
2024/04/25 07:46:45;;;;;;;17.77;10.50;;;7.20;99.90;;;;;;5497041;25;19994;-67
2024/04/25 07:49:12;;;;;;;13.30;8.77;;;7.30;99.90;;;;;;5504487;25;19998;-66
2024/04/25 07:51:38;;;;;;;19.23;9.68;;;7.30;99.90;;;;;;5503428;25;20363;-66
2024/04/25 07:54:04;;;;;;;16.80;9.30;;;7.30;99.90;;;;;;5475423;26;20009;-68
2024/04/25 07:56:29;;;;;;;19.30;9.82;;;7.20;99.90;;;;;;5501760;25;19994;-67
2024/04/25 07:58:55;;;;;;;16.95;9.70;;;7.20;99.90;;;;;;5476765;26;20507;-66
2024/04/25 08:01:21;;;;;;;18.60;10.13;;;7.30;99.90;;;;;;5507419;25;20005;-67
2024/04/25 08:03:46;;;;;;;19.48;10.43;;;7.20;99.90;;;;;;5508728;25;20010;-68
2024/04/25 08:06:12;;;;;;;15.55;9.23;;;7.20;99.90;;;;;;5503247;25;19994;-68
2024/04/25 08:08:39;;;;;;;15.07;8.60;;;7.20;99.90;;;;;;5505195;25;19997;-67
2024/04/25 08:11:06;;;;;;;16.02;8.10;;;7.20;99.90;;;;;;5493118;25;20461;-66
2024/04/25 08:13:31;;;;;;;16.42;9.35;;;7.30;99.90;;;;;;5506203;25;20455;-66
2024/04/25 08:15:57;;;;;;;23.27;9.82;;;7.30;99.90;;;;;;5506861;25;20002;-66
2024/04/25 08:18:23;;;;;;;13.38;8.85;;;7.40;99.90;;;;;;5501285;25;20001;-66
2024/04/25 08:20:48;;;;;;;22.67;11.25;;;7.40;99.90;;;;;;5505890;26;20012;-67
2024/04/25 08:23:14;;;;;;;19.20;10.43;;;7.30;99.90;;;;;;5504285;25;20411;-66
2024/04/25 08:25:39;;;;;;;16.63;9.45;;;7.30;99.90;;;;;;5505354;25;19994;-67
2024/04/25 08:28:08;;;;;;;19.75;9.48;;;7.50;99.90;;;;;;5507688;25;19998;-66
2024/04/25 08:30:33;;;;;;;18.75;8.55;;;7.50;99.90;;;;;;5497016;25;19993;-66
2024/04/25 08:32:59;;;;;;;17.95;8.82;;;7.60;99.90;;;;;;5474591;26;20014;-67
2024/04/25 08:35:25;;;;;;;17.25;8.98;;;7.60;99.90;;;;;;5506214;25;19998;-67
2024/04/25 08:37:50;;;;;;;19.00;8.45;;;7.70;99.90;;;;;;5505965;25;20464;-67
2024/04/25 08:40:17;;;;;;;15.65;8.35;;;7.60;99.90;;;;;;5496332;25;20010;-67
2024/04/25 08:42:44;;;;;;;14.40;8.25;;;7.70;99.90;;;;;;5507829;25;20375;-66
2024/04/25 08:45:11;;;;;;;13.10;7.85;;;7.80;99.90;;;;;;5505712;25;20582;-66
2024/04/25 08:47:41;;;;;;;14.33;7.07;;;8.00;99.90;;;;;;5514133;26;20454;-66
2024/04/25 08:50:09;;;;;;;12.80;7.50;;;8.10;99.90;;;;;;5510810;26;20001;-66
2024/04/25 08:52:37;;;;;;;11.40;7.50;;;8.30;99.90;;;;;;5511298;25;20017;-66
2024/04/25 08:55:03;;;;;;;;;;;8.30;99.90;;;;;;5504064;25;19993;-67
2024/04/25 08:57:29;;;;;;;18.63;8.35;;;8.50;99.90;;;;;;5500045;25;19924;-66
2024/04/25 08:59:55;;;;;;;15.10;7.00;;;8.50;99.90;;;;;;5502274;25;20005;-67
2024/04/25 09:02:23;;;;;;;11.98;6.00;;;8.60;99.90;;;;;;5510455;25;20018;-65
2024/04/25 09:04:52;;;;;;;8.90;6.15;;;8.60;99.90;;;;;;5504204;25;20467;-67
2024/04/25 09:07:18;;;;;;;15.07;7.55;;;8.80;99.90;;;;;;5509732;25;20010;-67
2024/04/25 09:09:43;;;;;;;11.35;7.00;;;8.90;99.90;;;;;;5503275;25;20018;-66
2024/04/25 09:12:09;;;;;;;10.90;6.10;;;9.00;99.90;;;;;;5512916;25;20001;-67
2024/04/25 09:14:36;;;;;;;12.18;6.03;;;9.10;99.90;;;;;;5507504;25;20006;-67
2024/04/25 09:17:02;;;;;;;15.43;6.70;;;9.30;99.90;;;;;;5502031;25;20954;-68
2024/04/25 09:19:28;;;;;;;15.75;6.93;;;9.30;99.90;;;;;;5508429;25;19993;-67
2024/04/25 09:21:54;;;;;;;10.10;5.68;;;9.20;99.90;;;;;;5463576;25;20787;-65
2024/04/25 09:24:19;;;;;;;8.52;5.00;;;9.10;99.90;;;;;;5502581;26;20043;-67
2024/04/25 09:26:49;;;;;;;6.82;5.18;;;9.20;99.90;;;;;;5512151;25;20005;-67
2024/04/25 09:29:15;;;;;;;11.80;5.10;;;9.20;99.90;;;;;;5499696;25;20009;-67
2024/04/25 09:31:41;;;;;;;9.30;4.72;;;9.10;99.90;;;;;;5504638;25;19998;-66
2024/04/25 09:34:07;;;;;;;5.97;3.45;;;8.70;99.90;;;;;;5498572;25;20013;-66
2024/04/25 09:36:33;;;;;;;5.53;3.75;;;8.50;99.90;;;;;;5509441;25;20254;-66
2024/04/25 09:38:59;;;;;;;7.65;3.53;;;8.10;99.90;;;;;;5471460;25;19993;-66
2024/04/25 09:41:26;;;;;;;3.03;2.33;;;8.00;99.90;;;;;;5509205;25;20465;-67
2024/04/25 09:43:51;;;;;;;4.93;2.92;;;8.10;99.90;;;;;;5503307;25;20760;-67
2024/04/25 09:46:37;;;;;;;7.55;3.20;;;8.00;99.90;;;;;;5497434;25;20010;-66
2024/04/25 09:49:05;;;;;;;4.57;2.92;;;8.00;99.90;;;;;;5472395;26;20001;-67
2024/04/25 09:51:39;;;;;;;6.00;2.55;;;7.90;99.90;;;;;;5506790;25;20552;-67
2024/04/25 09:54:21;;;;;;;3.90;2.25;;;7.80;99.90;;;;;;5505824;25;20097;-70
2024/04/25 09:56:52;;;;;;;3.10;1.85;;;7.70;99.90;;;;;;5503444;25;20025;-69
2024/04/25 09:59:47;;;;;;;6.97;1.60;;;7.50;99.90;;;;;;5508568;25;20065;-66
2024/04/25 10:02:19;;;;;;;7.45;1.60;;;7.60;99.90;;;;;;5492143;25;20050;-67
2024/04/25 10:04:45;;;;;;;6.38;1.25;;;7.50;99.90;;;;;;5470182;26;20006;-68
2024/04/25 10:07:13;;;;;;;5.32;1.00;;;7.50;99.90;;;;;;5473727;26;20439;-66
2024/04/25 10:09:40;;;;;;;3.38;1.10;;;7.50;99.90;;;;;;5474423;26;21009;-66
2024/04/25 10:12:06;;;;;;;8.68;1.35;;;7.60;99.90;;;;;;5472597;26;19995;-65
2024/04/25 10:14:33;;;;;;;7.20;1.48;;;7.70;99.90;;;;;;5473094;26;20518;-67
2024/04/25 10:16:59;;;;;;;13.57;1.35;;;7.90;99.90;;;;;;5471903;26;19998;-66
2024/04/25 10:19:36;;;;;;;4.82;1.33;;;8.00;99.90;;;;;;5474632;26;20006;-66
2024/04/25 10:22:01;;;;;;;4.18;1.02;;;8.10;99.90;;;;;;5462913;26;20002;-66
2024/04/25 10:24:27;;;;;;;7.22;1.77;;;8.30;99.90;;;;;;5468648;26;20016;-67
2024/04/25 10:26:52;;;;;;;4.38;1.33;;;8.40;99.90;;;;;;5475561;26;20013;-66
2024/04/25 10:29:28;;;;;;;6.28;1.38;;;8.60;99.90;;;;;;5475258;26;20446;-65
2024/04/25 10:31:54;;;;;;;6.20;1.40;;;8.80;99.90;;;;;;5504891;26;19993;-67
2024/04/25 10:34:19;;;;;;;5.65;1.33;;;8.90;99.90;;;;;;5473669;26;20002;-67
2024/04/25 10:36:46;;;;;;;5.47;1.65;;;9.20;99.90;;;;;;5472778;26;20017;-66
2024/04/25 10:39:15;;;;;;;7.15;1.50;;;9.20;99.90;;;;;;5477976;26;20751;-67
2024/04/25 10:41:41;;;;;;;7.75;1.83;;;9.30;99.90;;;;;;5485759;26;19995;-65
2024/04/25 10:44:08;;;;;;;6.97;1.50;;;9.40;99.90;;;;;;5473945;26;20779;-66
2024/04/25 10:46:37;;;;;;;10.40;1.33;;;9.60;99.90;;;;;;5476030;26;20010;-66
2024/04/25 10:49:07;;;;;;;9.02;1.40;;;9.70;99.90;;;;;;5450080;26;20458;-66
2024/04/25 10:51:36;;;;;;;6.13;1.30;;;9.80;99.90;;;;;;5466362;26;20028;-68
2024/04/25 10:54:02;;;;;;;10.25;1.58;;;9.90;99.90;;;;;;5479218;26;19995;-67
2024/04/25 10:56:27;;;;;;;7.43;1.73;;;10.10;99.90;;;;;;5459276;26;20021;-68
2024/04/25 10:58:55;;;;;;;4.03;1.15;;;10.10;99.90;;;;;;5465047;26;20009;-66
2024/04/25 11:01:28;;;;;;;4.20;1.23;;;10.10;99.90;;;;;;5432868;26;19995;-65
2024/04/25 11:03:59;;;;;;;2.58;1.20;;;10.40;99.90;;;;;;5468099;26;20100;-67
2024/04/25 11:06:27;;;;;;;4.65;1.30;;;10.50;99.90;;;;;;5472541;26;20618;-64
2024/04/25 11:08:53;;;;;;;4.22;1.90;;;10.80;99.90;;;;;;5480465;26;20024;-64
2024/04/25 11:11:20;;;;;;;6.13;1.52;;;10.80;99.90;;;;;;5436388;26;20014;-65
2024/04/25 11:13:46;;;;;;;6.10;1.40;;;11.00;99.90;;;;;;5473110;26;20010;-64
2024/04/25 11:16:12;;;;;;;4.47;1.20;;;11.00;98.40;;;;;;5434351;26;20040;-64
2024/04/25 11:18:38;;;;;;;6.28;1.95;;;11.10;99.20;;;;;;5468555;26;20018;-64
2024/04/25 11:21:07;;;;;;;11.00;1.75;;;11.10;98.50;;;;;;5465650;26;20063;-64
2024/04/25 11:23:33;;;;;;;4.32;1.50;;;11.40;99.30;;;;;;5435270;26;20002;-64
2024/04/25 11:26:02;;;;;;;5.70;1.55;;;11.50;99.10;;;;;;5478695;26;20774;-64
2024/04/25 11:28:30;;;;;;;8.57;1.35;;;11.60;97.70;;;;;;5471462;26;20003;-64
2024/04/25 11:30:57;;;;;;;10.55;1.50;;;11.60;96.70;;;;;;5456188;26;20013;-65
2024/04/25 11:33:26;;;;;;;6.20;1.20;;;11.60;97.00;;;;;;5480381;26;20039;-64
2024/04/25 11:35:52;;;;;;;5.97;1.33;;;11.70;96.40;;;;;;5473459;26;20002;-64
2024/04/25 11:38:18;;;;;;;7.13;1.33;;;11.70;96.20;;;;;;5445887;26;20006;-64
2024/04/25 11:40:46;;;;;;;4.82;2.17;;;11.70;95.80;;;;;;5468435;26;20039;-64
2024/04/25 11:43:13;;;;;;;9.02;1.33;;;11.50;95.80;;;;;;5477585;26;20059;-64
2024/04/25 11:45:39;;;;;;;7.03;1.80;;;11.30;96.50;;;;;;5434730;26;19999;-64
2024/04/25 11:48:10;;;;;;;3.92;1.30;;;10.90;96.80;;;;;;5468219;26;20538;-64
2024/04/25 11:50:36;;;;;;;3.40;1.30;;;11.10;97.70;;;;;;5462995;26;20011;-64
2024/04/25 11:53:06;;;;;;;4.45;1.40;;;11.20;97.40;;;;;;5467946;26;19998;-66
2024/04/25 11:55:32;;;;;;;6.35;1.10;;;11.10;96.80;;;;;;5472254;26;19995;-69
2024/04/25 11:57:58;;;;;;;9.68;1.05;;;11.30;96.60;;;;;;5483964;26;20035;-66
2024/04/25 12:00:24;;;;;;;3.72;1.10;;;11.70;96.40;;;;;;5469234;26;20006;-67
2024/04/25 12:02:49;;;;;;;5.82;0.90;;;11.90;95.20;;;;;;5472325;26;20006;-67
2024/04/25 12:05:15;;;;;;;12.38;2.38;;;12.10;94.20;;;;;;5447388;26;20007;-67
2024/04/25 12:07:42;;;;;;;1.90;0.20;;;12.20;94.10;;;;;;5468923;26;19999;-66
2024/04/25 12:10:07;;;;;;;7.90;1.00;;;12.30;93.90;;;;;;5460764;26;20678;-65
2024/04/25 12:12:33;;;;;;;11.23;1.10;;;12.60;93.70;;;;;;5437154;26;20006;-66
2024/04/25 12:14:59;;;;;;;4.18;0.90;;;12.50;92.10;;;;;;5436809;26;20585;-68
2024/04/25 12:17:26;;;;;;;7.10;1.67;;;12.50;92.50;;;;;;5446984;26;20009;-67
2024/04/25 12:19:51;;;;;;;5.00;1.02;;;12.60;91.90;;;;;;5474639;26;20005;-69
2024/04/25 12:22:17;;;;;;;4.60;0.98;;;13.10;92.20;;;;;;5475722;26;19999;-66
2024/04/25 12:24:43;;;;;;;5.43;1.20;;;13.20;91.30;;;;;;5475804;26;20672;-67
2024/04/25 12:27:09;;;;;;;9.82;1.10;;;13.50;91.60;;;;;;5446878;26;20006;-68
2024/04/25 12:29:34;;;;;;;5.88;1.10;;;13.60;91.20;;;;;;5461409;26;20068;-66
2024/04/25 12:32:02;;;;;;;3.40;0.98;;;13.50;90.80;;;;;;5471287;26;20349;-67
2024/04/25 12:34:28;;;;;;;9.90;0.88;;;13.70;91.30;;;;;;5474245;26;20023;-65
2024/04/25 12:36:54;;;;;;;6.65;1.13;;;14.20;90.70;;;;;;5477277;26;19995;-66
2024/04/25 12:39:19;;;;;;;5.30;1.08;;;14.50;90.50;;;;;;5455830;26;19994;-68
2024/04/25 12:41:45;;;;;;;4.45;1.27;;;15.00;91.30;;;;;;5474813;26;19994;-66
2024/04/25 12:44:10;;;;;;;4.80;1.20;;;15.80;90.60;;;;;;5481221;26;20005;-66
2024/04/25 12:46:36;;;;;;;5.75;1.15;;;16.00;87.70;;;;;;5465349;26;20030;-66